Adger, AL

11:59 AM CST on December 03, 2016 (GMT -0600)
Alliance | | Change Station

Elev 545 ft 33.52 °N, 87.14 °W | Updated 34 seconds ago

Overcast
Overcast
51.1 °F
Feels Like 51.1 °F
N
0.0
Wind Variable Wind from East

Today
High -- | Low -- °F
--% Chance of Precip.
Yesterday
High -- | Low -- °F
Precip. -- in
Pressure 30.30 in
Visibility 10.0 miles
Clouds Overcast 10000 ft
Dew Point 42 °F
Humidity 71%
Rainfall 0.00 in
Snow Depth Not available.
6:36 AM 4:40 PM
Waxing Crescent, 16% visible
METAR KBHM 031753Z 07005KT 10SM OVC100 12/M01 A3030 RMK AO2 SLP259 T01171011 10117 20072 55005 $
Pressure 30.30 in
Visibility 10.0 miles
Clouds Overcast 10000 ft
Dew Point 42 °F
Humidity 71%
Rainfall 0.00 in
Snow Depth Not available.
6:36 AM 4:40 PM
Waxing Crescent, 16% visible
METAR KBHM 031753Z 07005KT 10SM OVC100 12/M01 A3030 RMK AO2 SLP259 T01171011 10117 20072 55005 $

10-Day Weather Forecast

Almanac

Astronomy

Dec. 03, 2016 Rise Set
Actual Time
Civil Twilight
Nautical Twilight
Astronomical Twilight
Moon
Length of Visible Light
Length of Day
Tomorrow will be .
, % of the Moon is Illuminated

Today's Extremes

State Highs State Lows

Community

WunderPhotos

Upload Photos

1,955,455 photos uploaded!

WunderBlog® & News

Nearby

Air Quality

  Air Quality AQ Index Pollutant
Not available.

Snow Depth

Station Depth Elevation

Earthquake Activity

City Distance Mag. Time & Date
Minimum magnitude displayed is 2.5.

Coastal Water Temperatures

Place Temperature

Stations

Nearby Weather Stations

Station Location Temp. Windchill Dew Point Humidity Wind Precip. Elev Updated Type
                   

Watches & Warnings

There are currently no watches in effect.